createdAt,value
2023-05-17T00:00:10.221Z,0.00
2023-05-17T00:01:10.234Z,0.00
2023-05-17T00:02:10.234Z,0.00
2023-05-17T00:03:10.326Z,0.00
2023-05-17T00:04:11.261Z,0.00
2023-05-17T00:05:10.223Z,0.00
2023-05-17T00:06:10.222Z,0.00
2023-05-17T00:07:10.199Z,0.00
2023-05-17T00:08:10.192Z,0.00
2023-05-17T00:09:10.228Z,0.00
2023-05-17T00:10:11.210Z,0.00
2023-05-17T00:11:10.203Z,0.00
2023-05-17T00:12:10.184Z,0.00
2023-05-17T00:13:10.172Z,0.00
2023-05-17T00:14:10.163Z,0.00
2023-05-17T00:15:10.169Z,0.00
2023-05-17T00:16:11.193Z,0.00
2023-05-17T00:17:10.157Z,0.00
2023-05-17T00:18:10.257Z,0.00
2023-05-17T00:19:10.267Z,0.00
2023-05-17T00:20:10.141Z,0.00
2023-05-17T00:21:10.140Z,0.00
2023-05-17T00:22:11.144Z,0.00
2023-05-17T00:23:10.207Z,0.00
2023-05-17T00:24:10.131Z,0.00
2023-05-17T00:25:10.118Z,0.00
2023-05-17T00:26:10.119Z,0.00
2023-05-17T00:27:10.128Z,0.00
2023-05-17T00:28:11.141Z,0.00
2023-05-17T00:29:10.113Z,0.00
2023-05-17T00:30:10.099Z,0.00
2023-05-17T00:31:10.104Z,0.00
2023-05-17T00:32:10.090Z,0.00
2023-05-17T00:33:10.176Z,0.00
2023-05-17T00:34:11.103Z,0.00
2023-05-17T00:35:10.109Z,0.00
2023-05-17T00:36:10.074Z,0.00
2023-05-17T00:37:10.083Z,0.00
2023-05-17T00:38:10.084Z,0.00
2023-05-17T00:39:10.153Z,0.00
2023-05-17T00:40:11.069Z,0.00
2023-05-17T00:41:10.061Z,0.00
2023-05-17T00:42:10.053Z,0.00
2023-05-17T00:43:10.042Z,0.00
2023-05-17T00:44:10.042Z,0.00
2023-05-17T00:45:10.063Z,0.00
2023-05-17T00:46:11.079Z,0.00
2023-05-17T00:47:10.073Z,0.00
2023-05-17T00:48:10.103Z,0.00
2023-05-17T00:49:10.040Z,0.00
2023-05-17T00:50:10.018Z,0.00
2023-05-17T00:51:10.022Z,0.00
2023-05-17T00:52:11.020Z,0.00
2023-05-17T00:53:10.015Z,0.00
2023-05-17T00:54:09.994Z,0.00
2023-05-17T00:55:10.214Z,0.00
2023-05-17T00:56:10.004Z,0.00
2023-05-17T00:57:10.004Z,0.00
2023-05-17T00:58:10.992Z,0.00
2023-05-17T00:59:09.988Z,0.00
2023-05-17T01:00:09.970Z,0.00
2023-05-17T01:01:09.973Z,0.00
2023-05-17T01:02:09.966Z,0.00
2023-05-17T01:03:10.061Z,0.00
2023-05-17T01:04:11.118Z,0.00
2023-05-17T01:05:09.964Z,0.00
2023-05-17T01:06:09.966Z,0.00
2023-05-17T01:07:09.978Z,0.00
2023-05-17T01:08:09.933Z,0.00
2023-05-17T01:09:09.943Z,0.00
2023-05-17T01:10:10.946Z,0.00
2023-05-17T01:11:09.998Z,0.00
2023-05-17T01:12:09.923Z,0.00
2023-05-17T01:13:09.918Z,0.00
2023-05-17T01:14:09.943Z,0.00
2023-05-17T01:15:09.929Z,0.00
2023-05-17T01:16:10.910Z,0.00
2023-05-17T01:17:09.900Z,0.00
2023-05-17T01:18:09.960Z,0.00
2023-05-17T01:19:09.959Z,0.00
2023-05-17T01:20:10.011Z,0.00
2023-05-17T01:21:09.882Z,0.00
2023-05-17T01:22:10.901Z,0.00
2023-05-17T01:23:09.890Z,0.00
2023-05-17T01:24:09.873Z,0.00
2023-05-17T01:25:09.877Z,0.00
2023-05-17T01:26:09.859Z,0.00
2023-05-17T01:27:09.938Z,0.00
2023-05-17T01:28:10.884Z,0.00
2023-05-17T01:29:09.845Z,0.00
2023-05-17T01:30:09.852Z,0.00
2023-05-17T01:31:09.840Z,0.00
2023-05-17T01:32:09.842Z,0.00
2023-05-17T01:33:10.043Z,0.00
2023-05-17T01:34:10.848Z,0.00
2023-05-17T01:35:09.828Z,0.00
2023-05-17T01:36:09.846Z,0.00
2023-05-17T01:37:09.812Z,0.00
2023-05-17T01:38:09.799Z,0.00
2023-05-17T01:39:09.803Z,0.00
2023-05-17T01:40:10.809Z,0.00
2023-05-17T01:41:09.798Z,0.00
2023-05-17T01:42:09.786Z,0.00
2023-05-17T01:43:09.888Z,0.00
2023-05-17T01:44:09.781Z,0.00
2023-05-17T01:45:09.773Z,0.00
2023-05-17T01:46:10.792Z,0.00
2023-05-17T01:47:09.771Z,0.00
2023-05-17T01:48:09.938Z,0.00
2023-05-17T01:49:09.759Z,0.00
2023-05-17T01:50:09.759Z,0.00
2023-05-17T01:51:09.753Z,0.00
2023-05-17T01:52:10.761Z,0.00
2023-05-17T01:53:09.758Z,0.00
2023-05-17T01:54:09.733Z,0.00
2023-05-17T01:55:09.726Z,0.00
2023-05-17T01:56:09.725Z,0.00
2023-05-17T01:57:09.728Z,0.00
2023-05-17T01:58:10.745Z,0.00
2023-05-17T01:59:09.797Z,0.00
2023-05-17T02:00:09.719Z,0.00
2023-05-17T02:01:09.709Z,0.00
2023-05-17T02:02:09.718Z,0.00
2023-05-17T02:03:09.694Z,0.00
2023-05-17T02:04:10.832Z,0.00
2023-05-17T02:05:09.788Z,0.00
2023-05-17T02:06:09.687Z,0.00
2023-05-17T02:07:09.680Z,0.00
2023-05-17T02:08:09.671Z,0.00
2023-05-17T02:09:09.686Z,0.00
2023-05-17T02:10:10.671Z,0.00
2023-05-17T02:11:09.657Z,0.00
2023-05-17T02:12:09.687Z,0.00
2023-05-17T02:13:09.653Z,0.00
2023-05-17T02:14:09.679Z,0.00
2023-05-17T02:15:09.794Z,0.00
2023-05-17T02:16:10.650Z,0.00
2023-05-17T02:17:09.671Z,0.00
2023-05-17T02:18:09.686Z,0.00
2023-05-17T02:19:09.690Z,0.00
2023-05-17T02:20:09.635Z,0.00
2023-05-17T02:21:09.619Z,0.00
2023-05-17T02:22:10.624Z,0.00
2023-05-17T02:23:09.604Z,0.00
2023-05-17T02:24:09.614Z,0.00
2023-05-17T02:25:09.637Z,0.00
2023-05-17T02:26:09.620Z,0.00
2023-05-17T02:27:09.587Z,0.00
2023-05-17T02:28:10.604Z,0.00
2023-05-17T02:29:09.587Z,0.00
2023-05-17T02:30:09.579Z,0.00
2023-05-17T02:31:09.685Z,0.00
2023-05-17T02:32:09.569Z,0.00
2023-05-17T02:33:09.645Z,0.00
2023-05-17T02:34:10.566Z,0.00
2023-05-17T02:35:09.560Z,0.00
2023-05-17T02:36:09.545Z,4.00
2023-05-17T02:37:09.544Z,4.00
2023-05-17T02:38:09.535Z,4.00
2023-05-17T02:39:09.531Z,4.00
2023-05-17T02:40:10.551Z,0.00
2023-05-17T02:41:09.524Z,0.00
2023-05-17T02:42:09.544Z,4.00
2023-05-17T02:43:09.525Z,4.00
2023-05-17T02:44:09.529Z,4.00
2023-05-17T02:45:09.519Z,4.00
2023-05-17T02:46:10.520Z,4.00
2023-05-17T02:47:09.833Z,4.00
2023-05-17T02:48:09.548Z,4.00
2023-05-17T02:49:09.491Z,8.00
2023-05-17T02:50:09.492Z,8.00
2023-05-17T02:51:09.480Z,8.00
2023-05-17T02:52:10.487Z,8.00
2023-05-17T02:53:09.464Z,12.00
2023-05-17T02:54:09.526Z,12.00
2023-05-17T02:55:09.471Z,8.00
2023-05-17T02:56:09.477Z,12.00
2023-05-17T02:57:09.449Z,12.00
2023-05-17T02:58:10.469Z,12.00
2023-05-17T02:59:09.453Z,12.00
2023-05-17T03:00:09.442Z,16.00
2023-05-17T03:01:09.465Z,16.00
2023-05-17T03:02:09.435Z,20.00
2023-05-17T03:03:09.656Z,20.00
2023-05-17T03:04:10.479Z,24.00
2023-05-17T03:05:09.413Z,28.00
2023-05-17T03:06:09.414Z,32.00
2023-05-17T03:07:09.421Z,32.00
2023-05-17T03:08:09.420Z,36.00
2023-05-17T03:09:09.409Z,36.00
2023-05-17T03:10:10.435Z,40.00
2023-05-17T03:11:09.403Z,40.00
2023-05-17T03:12:09.378Z,40.00
2023-05-17T03:13:09.382Z,48.00
2023-05-17T03:14:09.402Z,48.00
2023-05-17T03:15:09.402Z,52.00
2023-05-17T03:16:10.386Z,56.00
2023-05-17T03:17:09.368Z,60.00
2023-05-17T03:18:09.526Z,68.00
2023-05-17T03:19:09.656Z,68.00
2023-05-17T03:20:09.382Z,76.00
2023-05-17T03:21:09.349Z,80.00
2023-05-17T03:22:10.349Z,88.00
2023-05-17T03:23:09.334Z,96.00
2023-05-17T03:24:09.338Z,112.00
2023-05-17T03:25:09.329Z,120.00
2023-05-17T03:26:09.330Z,140.00
2023-05-17T03:27:09.353Z,152.00
2023-05-17T03:28:10.336Z,168.00
2023-05-17T03:29:09.320Z,196.00
2023-05-17T03:30:09.308Z,232.00
2023-05-17T03:31:09.363Z,260.00
2023-05-17T03:32:09.294Z,268.00
2023-05-17T03:33:09.394Z,260.00
2023-05-17T03:34:10.351Z,256.00
2023-05-17T03:35:09.561Z,248.00
2023-05-17T03:36:09.301Z,236.00
2023-05-17T03:37:09.299Z,228.00
2023-05-17T03:38:09.278Z,228.00
2023-05-17T03:39:09.304Z,232.00
2023-05-17T03:40:10.292Z,228.00
2023-05-17T03:41:09.256Z,224.00
2023-05-17T03:42:09.252Z,232.00
2023-05-17T03:43:09.248Z,248.00
2023-05-17T03:44:09.270Z,260.00
2023-05-17T03:45:09.255Z,272.00
2023-05-17T03:46:10.269Z,276.00
2023-05-17T03:47:09.250Z,292.00
2023-05-17T03:48:09.246Z,312.00
2023-05-17T03:49:09.356Z,336.00
2023-05-17T03:50:09.235Z,364.00
2023-05-17T03:51:09.284Z,380.00
2023-05-17T03:52:10.236Z,400.00
2023-05-17T03:53:09.221Z,428.00
2023-05-17T03:54:09.207Z,480.00
2023-05-17T03:55:09.211Z,536.00
2023-05-17T03:56:09.205Z,624.00
2023-05-17T03:57:09.191Z,728.00
2023-05-17T03:58:10.208Z,804.00
2023-05-17T03:59:09.193Z,912.00
2023-05-17T04:00:09.200Z,1016.00
2023-05-17T04:01:09.174Z,1080.00
2023-05-17T04:02:09.179Z,1108.00
2023-05-17T04:03:09.176Z,1136.00
2023-05-17T04:04:10.214Z,1180.00
2023-05-17T04:05:09.192Z,1240.00
2023-05-17T04:06:09.158Z,1308.00
2023-05-17T04:07:09.154Z,1404.00
2023-05-17T04:08:09.150Z,1492.00
2023-05-17T04:09:09.146Z,1540.00
2023-05-17T04:10:10.168Z,1572.00
2023-05-17T04:11:09.148Z,1592.00
2023-05-17T04:12:09.163Z,1624.00
2023-05-17T04:13:16.427Z,1652.00
2023-05-17T04:15:13.131Z,1748.00
2023-05-17T04:16:13.102Z,1772.00
2023-05-17T04:18:17.188Z,1868.00
2023-05-17T04:19:17.217Z,1968.00
2023-05-17T04:21:21.095Z,2660.00
2023-05-17T04:22:21.152Z,2792.00
2023-05-17T04:24:14.005Z,2796.00
2023-05-17T04:25:13.985Z,2636.00
2023-05-17T04:27:17.981Z,2564.00
2023-05-17T04:28:17.940Z,2748.00
2023-05-17T04:30:21.948Z,2764.00
2023-05-17T04:31:21.928Z,2664.00
2023-05-17T04:33:26.139Z,2664.00
2023-05-17T04:34:25.961Z,2604.00
2023-05-17T04:36:29.909Z,2608.00
2023-05-17T04:37:29.991Z,2652.00
2023-05-17T04:39:33.922Z,2780.00
2023-05-17T04:40:33.880Z,2856.00
2023-05-17T04:42:37.928Z,2960.00
2023-05-17T04:43:37.880Z,2980.00
2023-05-17T04:45:41.883Z,3012.00
2023-05-17T04:46:41.892Z,3184.00
2023-05-17T04:48:45.984Z,3616.00
2023-05-17T04:49:45.851Z,3380.00
2023-05-17T04:50:45.860Z,3240.00
2023-05-17T04:51:45.838Z,3256.00
2023-05-17T04:52:45.950Z,3320.00
2023-05-17T04:53:45.835Z,4056.00
2023-05-17T04:54:45.829Z,4128.00
2023-05-17T04:55:45.833Z,3692.00
2023-05-17T04:56:45.823Z,4468.00
2023-05-17T04:57:45.837Z,3980.00
2023-05-17T04:58:45.824Z,3852.00
2023-05-17T04:59:45.812Z,3744.00
2023-05-17T05:00:45.802Z,3944.00
2023-05-17T05:01:45.795Z,3824.00
2023-05-17T05:02:45.862Z,3864.00
2023-05-17T05:03:45.895Z,3840.00
2023-05-17T05:04:45.820Z,3884.00
2023-05-17T05:05:45.793Z,4140.00
2023-05-17T05:06:45.787Z,4060.00
2023-05-17T05:07:45.772Z,4084.00
2023-05-17T05:08:45.918Z,4016.00
2023-05-17T05:09:45.787Z,4140.00
2023-05-17T05:10:45.777Z,4744.00
2023-05-17T05:11:45.759Z,4472.00
2023-05-17T05:12:45.757Z,4196.00
2023-05-17T05:13:45.752Z,4416.00
2023-05-17T05:14:46.064Z,4884.00
2023-05-17T05:15:45.742Z,4856.00
2023-05-17T05:16:45.766Z,4660.00
2023-05-17T05:17:45.769Z,4864.00
2023-05-17T05:18:45.850Z,4908.00
2023-05-17T05:19:45.763Z,4892.00
2023-05-17T05:20:45.784Z,5056.00
2023-05-17T05:21:45.740Z,5056.00
2023-05-17T05:22:45.726Z,4988.00
2023-05-17T05:23:45.744Z,5348.00
2023-05-17T05:24:45.795Z,5420.00
2023-05-17T05:25:45.712Z,5580.00
2023-05-17T05:26:45.721Z,6024.00
2023-05-17T05:27:45.703Z,6988.00
2023-05-17T05:28:45.706Z,6480.00
2023-05-17T05:29:45.686Z,7284.00
2023-05-17T05:30:45.724Z,7964.00
2023-05-17T05:31:45.704Z,8528.00
2023-05-17T05:32:45.789Z,7108.00
2023-05-17T05:33:45.761Z,15400.00
2023-05-17T05:34:45.676Z,61664.00
2023-05-17T05:35:45.677Z,35360.00
2023-05-17T05:36:45.675Z,17984.00
2023-05-17T05:37:45.671Z,52160.00
2023-05-17T05:38:45.692Z,32448.00
2023-05-17T05:39:45.652Z,70848.00
2023-05-17T05:40:45.743Z,73504.00
2023-05-17T05:41:45.657Z,63296.00
2023-05-17T05:42:45.654Z,6432.00
2023-05-17T05:43:45.659Z,9672.00
2023-05-17T05:44:45.652Z,10776.00
2023-05-17T05:45:45.669Z,79552.00
2023-05-17T05:46:45.697Z,5040.00
2023-05-17T05:47:45.715Z,20896.00
2023-05-17T05:48:45.704Z,8236.00
2023-05-17T05:49:45.672Z,13720.00
2023-05-17T05:50:45.663Z,8912.00
2023-05-17T05:51:45.649Z,72192.00
2023-05-17T05:52:45.649Z,6140.00
2023-05-17T05:53:45.645Z,4624.00
2023-05-17T05:54:45.653Z,18240.00
2023-05-17T05:55:45.658Z,54912.00
2023-05-17T05:56:45.781Z,76544.00
2023-05-17T05:57:45.662Z,74816.00
2023-05-17T05:58:45.658Z,16296.00
2023-05-17T05:59:45.652Z,10504.00
2023-05-17T06:00:45.681Z,70784.00
2023-05-17T06:01:45.650Z,45312.00
2023-05-17T06:02:45.721Z,7824.00
2023-05-17T06:03:45.646Z,7476.00
2023-05-17T06:04:46.140Z,80704.00
2023-05-17T06:05:45.683Z,12700.00
2023-05-17T06:06:45.763Z,16864.00
2023-05-17T06:07:45.656Z,6052.00
2023-05-17T06:08:45.655Z,5428.00
2023-05-17T06:09:45.666Z,3596.00
2023-05-17T06:10:45.651Z,2312.00
2023-05-17T06:11:45.648Z,2284.00
2023-05-17T06:12:45.923Z,5024.00
2023-05-17T06:13:46.292Z,88864.00
2023-05-17T06:14:45.657Z,10300.00
2023-05-17T06:15:45.643Z,4488.00
2023-05-17T06:16:45.656Z,3412.00
2023-05-17T06:17:45.742Z,3372.00
2023-05-17T06:18:46.511Z,5700.00
2023-05-17T06:19:45.658Z,70816.00
2023-05-17T06:20:45.643Z,73792.00
2023-05-17T06:21:45.651Z,62208.00
2023-05-17T06:22:45.654Z,74368.00
2023-05-17T06:23:45.653Z,80096.00
2023-05-17T06:24:45.644Z,9668.00
2023-05-17T06:25:45.660Z,12652.00
2023-05-17T06:26:45.658Z,8980.00
2023-05-17T06:27:45.646Z,15964.00
2023-05-17T06:28:45.741Z,72320.00
2023-05-17T06:29:45.645Z,11712.00
2023-05-17T06:30:45.677Z,46016.00
2023-05-17T06:31:45.658Z,5572.00
2023-05-17T06:32:45.716Z,11552.00
2023-05-17T06:33:45.756Z,61600.00
2023-05-17T06:34:45.649Z,11444.00
2023-05-17T06:35:55.482Z,11132.00
2023-05-17T06:36:45.649Z,18112.00
2023-05-17T06:37:45.657Z,33120.00
2023-05-17T06:38:45.650Z,10172.00
2023-05-17T06:39:55.634Z,8376.00
2023-05-17T06:40:45.679Z,94208.00
2023-05-17T06:41:45.686Z,68832.00
2023-05-17T06:42:45.670Z,9464.00
2023-05-17T06:43:45.668Z,11612.00
2023-05-17T06:44:45.733Z,58368.00
2023-05-17T06:45:45.655Z,15384.00
2023-05-17T06:46:45.676Z,11860.00
2023-05-17T06:47:45.727Z,10268.00
2023-05-17T06:48:46.918Z,83168.00
2023-05-17T06:49:45.679Z,86496.00
2023-05-17T06:50:45.676Z,8988.00
2023-05-17T06:51:45.673Z,88960.00
2023-05-17T06:52:45.665Z,14776.00
2023-05-17T06:53:45.675Z,83776.00
2023-05-17T06:54:45.669Z,30720.00
2023-05-17T06:55:45.683Z,17344.00
2023-05-17T06:56:45.691Z,87456.00
2023-05-17T06:57:45.688Z,88096.00
2023-05-17T06:58:45.708Z,62464.00
2023-05-17T06:59:45.704Z,11064.00
2023-05-17T07:00:45.776Z,87584.00
2023-05-17T07:01:45.709Z,12700.00
2023-05-17T07:02:45.786Z,85472.00
2023-05-17T07:03:45.787Z,88320.00
2023-05-17T07:04:45.735Z,25888.00
2023-05-17T07:05:45.733Z,64192.00
2023-05-17T07:06:45.717Z,82624.00
2023-05-17T07:07:45.718Z,83616.00
2023-05-17T07:08:45.729Z,80672.00
2023-05-17T07:09:45.851Z,79200.00
2023-05-17T07:10:45.758Z,74880.00
2023-05-17T07:11:45.747Z,62368.00
2023-05-17T07:12:45.745Z,9452.00
2023-05-17T07:13:46.788Z,21792.00
2023-05-17T07:14:45.771Z,11264.00
2023-05-17T07:15:45.791Z,8820.00
2023-05-17T07:16:45.859Z,8656.00
2023-05-17T07:17:45.854Z,8108.00
2023-05-17T07:18:45.838Z,58880.00
2023-05-17T07:19:45.911Z,13100.00
2023-05-17T07:20:46.000Z,82688.00
2023-05-17T07:21:45.859Z,57440.00
2023-05-17T07:22:45.842Z,15408.00
2023-05-17T07:23:45.837Z,89888.00
2023-05-17T07:24:45.849Z,21344.00
2023-05-17T07:25:45.849Z,20224.00
2023-05-17T07:26:45.834Z,80960.00
2023-05-17T07:27:46.382Z,81088.00
2023-05-17T07:28:45.856Z,82976.00
2023-05-17T07:29:45.878Z,83072.00
2023-05-17T07:30:45.884Z,83968.00
2023-05-17T07:31:45.874Z,79808.00
2023-05-17T07:32:45.990Z,78944.00
2023-05-17T07:33:45.917Z,81504.00
2023-05-17T07:34:46.036Z,84288.00
2023-05-17T07:35:45.967Z,81664.00
2023-05-17T07:36:45.926Z,79520.00
2023-05-17T07:37:45.935Z,84704.00
2023-05-17T07:38:45.994Z,68288.00
2023-05-17T07:39:45.972Z,33408.00
2023-05-17T07:40:45.987Z,83456.00
2023-05-17T07:41:46.029Z,16356.00
2023-05-17T07:42:46.040Z,14664.00
2023-05-17T07:43:46.022Z,44448.00
2023-05-17T07:44:45.994Z,16040.00
2023-05-17T07:45:46.022Z,84032.00
2023-05-17T07:46:46.937Z,67136.00
2023-05-17T07:47:46.123Z,84640.00
2023-05-17T07:48:46.319Z,84384.00
2023-05-17T07:49:46.091Z,81600.00
2023-05-17T07:50:46.043Z,75296.00
2023-05-17T07:51:46.042Z,71840.00
2023-05-17T07:52:46.058Z,71296.00
2023-05-17T07:53:46.060Z,76384.00
2023-05-17T07:54:46.077Z,54240.00
2023-05-17T07:55:46.904Z,71712.00
2023-05-17T07:56:46.076Z,28000.00
2023-05-17T07:57:46.090Z,13924.00
2023-05-17T07:58:46.117Z,12808.00
2023-05-17T07:59:46.137Z,10768.00
2023-05-17T08:00:46.115Z,21696.00
2023-05-17T08:01:46.129Z,21056.00
2023-05-17T08:02:46.186Z,19648.00
2023-05-17T08:03:46.187Z,18496.00
2023-05-17T08:04:46.225Z,17792.00
2023-05-17T08:05:46.245Z,17472.00
2023-05-17T08:06:46.166Z,16512.00
2023-05-17T08:07:46.178Z,15808.00
2023-05-17T08:08:46.182Z,16192.00
2023-05-17T08:09:46.194Z,15648.00
2023-05-17T08:10:46.914Z,14600.00
2023-05-17T08:11:46.291Z,13716.00
2023-05-17T08:12:46.219Z,13248.00
2023-05-17T08:13:46.240Z,12208.00
2023-05-17T08:14:46.222Z,13284.00
2023-05-17T08:15:46.228Z,12312.00
2023-05-17T08:16:46.282Z,11676.00
2023-05-17T08:17:46.279Z,11264.00
2023-05-17T08:18:46.368Z,10876.00
2023-05-17T08:19:46.390Z,10640.00
2023-05-17T08:20:46.499Z,10348.00
2023-05-17T08:21:46.306Z,10136.00
2023-05-17T08:22:46.283Z,9884.00
2023-05-17T08:23:46.269Z,9740.00
2023-05-17T08:24:46.292Z,9556.00
2023-05-17T08:25:46.278Z,9360.00
2023-05-17T08:26:46.296Z,9168.00
2023-05-17T08:27:46.319Z,8968.00
2023-05-17T08:28:46.288Z,8908.00
2023-05-17T08:29:46.284Z,8832.00
2023-05-17T08:30:46.291Z,8724.00
2023-05-17T08:31:48.931Z,8644.00
2023-05-17T08:32:46.488Z,8512.00
2023-05-17T08:33:47.668Z,8368.00
2023-05-17T08:34:46.325Z,8280.00
2023-05-17T08:35:46.304Z,8684.00
2023-05-17T08:36:46.416Z,8480.00
2023-05-17T08:37:46.375Z,8048.00
2023-05-17T08:38:46.314Z,7888.00
2023-05-17T08:39:46.359Z,7944.00
2023-05-17T08:40:46.305Z,7968.00
2023-05-17T08:41:46.328Z,7764.00
2023-05-17T08:42:46.310Z,7616.00
2023-05-17T08:43:46.333Z,7308.00
2023-05-17T08:44:46.321Z,7204.00
2023-05-17T08:45:46.313Z,7104.00
2023-05-17T08:46:46.327Z,6952.00
2023-05-17T08:47:46.370Z,6788.00
2023-05-17T08:48:46.379Z,6644.00
2023-05-17T08:49:48.144Z,6548.00
2023-05-17T08:50:46.318Z,6560.00
2023-05-17T08:51:46.351Z,6460.00
2023-05-17T08:52:46.416Z,6380.00
2023-05-17T08:53:46.327Z,6332.00
2023-05-17T08:54:46.364Z,6308.00
2023-05-17T08:55:46.364Z,6252.00
2023-05-17T08:56:46.330Z,6176.00
2023-05-17T08:57:46.338Z,6132.00
2023-05-17T08:58:56.236Z,6096.00
2023-05-17T08:59:46.348Z,6052.00
2023-05-17T09:00:46.330Z,5996.00
2023-05-17T09:01:46.339Z,5920.00
2023-05-17T09:02:46.417Z,5816.00
2023-05-17T09:03:46.407Z,5728.00
2023-05-17T09:04:46.415Z,5692.00
2023-05-17T09:05:46.385Z,5640.00
2023-05-17T09:06:46.349Z,5584.00
2023-05-17T09:07:46.352Z,5520.00
2023-05-17T09:08:46.355Z,5448.00
2023-05-17T09:09:46.332Z,5376.00
2023-05-17T09:10:46.338Z,5320.00
2023-05-17T09:11:46.337Z,5276.00
2023-05-17T09:12:46.333Z,5176.00
2023-05-17T09:13:46.333Z,5120.00
2023-05-17T09:14:46.336Z,5052.00
2023-05-17T09:15:46.335Z,5008.00
2023-05-17T09:16:46.327Z,4988.00
2023-05-17T09:17:46.464Z,4944.00
2023-05-17T09:18:46.486Z,4928.00
2023-05-17T09:19:46.483Z,4904.00
2023-05-17T09:20:46.340Z,4888.00
2023-05-17T09:21:46.330Z,4832.00
2023-05-17T09:22:46.355Z,4812.00
2023-05-17T09:23:54.237Z,4780.00
2023-05-17T09:24:46.534Z,4728.00
2023-05-17T09:25:46.333Z,4708.00
2023-05-17T09:26:46.479Z,4676.00
2023-05-17T09:27:46.355Z,4652.00
2023-05-17T09:28:46.347Z,4648.00
2023-05-17T09:29:46.345Z,4620.00
2023-05-17T09:30:46.337Z,4612.00
2023-05-17T09:31:46.342Z,4536.00
2023-05-17T09:32:46.538Z,4508.00
2023-05-17T09:33:46.377Z,4552.00
2023-05-17T09:34:46.329Z,4480.00
2023-05-17T09:35:46.340Z,4408.00
2023-05-17T09:36:46.379Z,4344.00
2023-05-17T09:37:46.336Z,4272.00
2023-05-17T09:38:46.334Z,4240.00
2023-05-17T09:39:46.340Z,4164.00
2023-05-17T09:40:46.367Z,4100.00
2023-05-17T09:41:46.350Z,4036.00
2023-05-17T09:42:46.380Z,4012.00
2023-05-17T09:43:46.362Z,3984.00
2023-05-17T09:44:46.325Z,3936.00
2023-05-17T09:45:46.324Z,3968.00
2023-05-17T09:46:46.369Z,3916.00
2023-05-17T09:47:46.407Z,3888.00
2023-05-17T09:48:46.408Z,3864.00
2023-05-17T09:49:46.343Z,3876.00
2023-05-17T09:50:46.338Z,3860.00
2023-05-17T09:51:46.319Z,3836.00
2023-05-17T09:52:46.318Z,3820.00
2023-05-17T09:53:46.337Z,3800.00
2023-05-17T09:54:46.329Z,3796.00
2023-05-17T09:55:46.331Z,3744.00
2023-05-17T09:56:46.358Z,3720.00
2023-05-17T09:57:46.367Z,3688.00
2023-05-17T09:58:46.361Z,3652.00
2023-05-17T09:59:46.311Z,3620.00
2023-05-17T10:00:47.249Z,3596.00
2023-05-17T10:01:46.316Z,3572.00
2023-05-17T10:02:46.383Z,3552.00
2023-05-17T10:03:46.335Z,3512.00
2023-05-17T10:04:46.352Z,3524.00
2023-05-17T10:05:46.373Z,3504.00
2023-05-17T10:06:49.555Z,3496.00
2023-05-17T10:07:46.308Z,3504.00
2023-05-17T10:08:46.343Z,3472.00
2023-05-17T10:09:46.316Z,3444.00
2023-05-17T10:10:46.369Z,3444.00
2023-05-17T10:11:46.377Z,3408.00
2023-05-17T10:13:59.994Z,3356.00
2023-05-17T10:15:00.000Z,3352.00
2023-05-17T10:17:04.433Z,3324.00
2023-05-17T10:18:04.502Z,3312.00
2023-05-17T10:19:04.437Z,3288.00
2023-05-17T10:20:04.521Z,3260.00
2023-05-17T10:21:04.360Z,3256.00
2023-05-17T10:22:21.172Z,3252.00
2023-05-17T10:23:04.354Z,3256.00
2023-05-17T10:24:04.356Z,3280.00
2023-05-17T10:25:04.361Z,3288.00
2023-05-17T10:26:04.352Z,3268.00
2023-05-17T10:27:04.341Z,3216.00
2023-05-17T10:28:04.347Z,3204.00
2023-05-17T10:29:04.378Z,3204.00
2023-05-17T10:30:04.342Z,4188.00
2023-05-17T10:31:04.364Z,4376.00
2023-05-17T10:32:04.369Z,3412.00
2023-05-17T10:33:04.479Z,3160.00
2023-05-17T10:34:04.490Z,3136.00
2023-05-17T10:35:11.123Z,3116.00
2023-05-17T10:36:04.398Z,3136.00
2023-05-17T10:37:04.348Z,3116.00
2023-05-17T10:38:04.357Z,3096.00
2023-05-17T10:39:04.335Z,3084.00
2023-05-17T10:40:04.355Z,3080.00
2023-05-17T10:41:04.340Z,3064.00
2023-05-17T10:42:14.398Z,3056.00
2023-05-17T10:43:04.341Z,3048.00
2023-05-17T10:44:04.341Z,3052.00
2023-05-17T10:45:04.372Z,3056.00
2023-05-17T10:46:04.347Z,3052.00
2023-05-17T10:47:04.324Z,3040.00
2023-05-17T10:48:04.396Z,3040.00
2023-05-17T10:49:04.383Z,3024.00
2023-05-17T10:50:04.361Z,3000.00
2023-05-17T10:51:04.326Z,2764.00
2023-05-17T10:52:04.391Z,2408.00
2023-05-17T10:53:04.319Z,2968.00
2023-05-17T10:54:04.346Z,2980.00
2023-05-17T10:55:04.308Z,2960.00
2023-05-17T10:56:04.374Z,2980.00
2023-05-17T10:57:05.364Z,2952.00
2023-05-17T10:58:04.326Z,2916.00
2023-05-17T10:59:04.322Z,2924.00
2023-05-17T11:00:04.309Z,2900.00
2023-05-17T11:01:04.365Z,2888.00
2023-05-17T11:02:04.310Z,2872.00
2023-05-17T11:03:04.344Z,2856.00
2023-05-17T11:04:04.312Z,2836.00
2023-05-17T11:05:04.363Z,2832.00
2023-05-17T11:06:05.200Z,2848.00
2023-05-17T11:07:06.623Z,2836.00
2023-05-17T11:08:04.298Z,2820.00
2023-05-17T11:09:04.288Z,2800.00
2023-05-17T11:10:04.283Z,2772.00
2023-05-17T11:11:04.325Z,2752.00
2023-05-17T11:12:04.295Z,2732.00
2023-05-17T11:13:04.291Z,2868.00
2023-05-17T11:14:04.318Z,2732.00
2023-05-17T11:15:05.761Z,2724.00
2023-05-17T11:16:04.286Z,2696.00
2023-05-17T11:17:04.276Z,2704.00
2023-05-17T11:18:04.373Z,2712.00
2023-05-17T11:19:04.379Z,2692.00
2023-05-17T11:20:04.368Z,2704.00
2023-05-17T11:21:04.316Z,2708.00
2023-05-17T11:22:04.268Z,2720.00
2023-05-17T11:23:04.269Z,2712.00
2023-05-17T11:24:04.272Z,2712.00
2023-05-17T11:25:04.270Z,2704.00
2023-05-17T11:26:15.333Z,2700.00
2023-05-17T11:27:04.262Z,2704.00
2023-05-17T11:28:04.271Z,2724.00
2023-05-17T11:29:04.266Z,2724.00
2023-05-17T11:30:04.264Z,2736.00
2023-05-17T11:31:04.264Z,2736.00
2023-05-17T11:32:04.264Z,2752.00
2023-05-17T11:33:05.707Z,2768.00
2023-05-17T11:34:04.320Z,2768.00
2023-05-17T11:35:04.335Z,2776.00
2023-05-17T11:36:04.269Z,2780.00
2023-05-17T11:37:04.253Z,2784.00
2023-05-17T11:38:04.259Z,2800.00
2023-05-17T11:39:07.982Z,2820.00
2023-05-17T11:40:04.273Z,2824.00
2023-05-17T11:41:06.253Z,2836.00
2023-05-17T11:42:04.245Z,2848.00
2023-05-17T11:43:04.250Z,2852.00
2023-05-17T11:44:04.238Z,2872.00
2023-05-17T11:45:04.241Z,2880.00
2023-05-17T11:46:04.289Z,2892.00
2023-05-17T11:47:04.298Z,2900.00
2023-05-17T11:48:04.330Z,2908.00
2023-05-17T11:49:04.238Z,2908.00
2023-05-17T11:50:04.237Z,2916.00
2023-05-17T11:51:04.232Z,2932.00
2023-05-17T11:52:04.261Z,2944.00
2023-05-17T11:53:04.271Z,2936.00
2023-05-17T11:54:04.291Z,2964.00
2023-05-17T11:55:04.227Z,2968.00
2023-05-17T11:56:04.249Z,2988.00
2023-05-17T11:57:04.306Z,3020.00
2023-05-17T11:58:04.222Z,3024.00
2023-05-17T11:59:04.213Z,3056.00
2023-05-17T12:00:04.234Z,3056.00
2023-05-17T12:01:04.221Z,3020.00
2023-05-17T12:02:04.217Z,3024.00
2023-05-17T12:03:04.283Z,3040.00
2023-05-17T12:04:04.229Z,3108.00
2023-05-17T12:05:04.358Z,3084.00
2023-05-17T12:06:04.352Z,3080.00
2023-05-17T12:07:04.200Z,3064.00
2023-05-17T12:08:04.209Z,3080.00
2023-05-17T12:09:04.229Z,3056.00
2023-05-17T12:10:04.215Z,3064.00
2023-05-17T12:11:04.204Z,3084.00
2023-05-17T12:12:04.200Z,3036.00
2023-05-17T12:13:04.205Z,3028.00
2023-05-17T12:14:04.207Z,3024.00
2023-05-17T12:15:04.192Z,3060.00
2023-05-17T12:16:04.219Z,3080.00
2023-05-17T12:17:04.186Z,3076.00
2023-05-17T12:18:04.250Z,3080.00
2023-05-17T12:19:04.326Z,3084.00
2023-05-17T12:20:04.289Z,3072.00
2023-05-17T12:21:04.207Z,3100.00
2023-05-17T12:22:04.187Z,3136.00
2023-05-17T12:23:04.184Z,3144.00
2023-05-17T12:24:04.207Z,3148.00
2023-05-17T12:25:04.184Z,3144.00
2023-05-17T12:26:04.194Z,3168.00
2023-05-17T12:27:04.210Z,3192.00
2023-05-17T12:28:04.220Z,3208.00
2023-05-17T12:29:04.178Z,3208.00
2023-05-17T12:30:04.188Z,3292.00
2023-05-17T12:31:04.171Z,3456.00
2023-05-17T12:32:04.192Z,3488.00
2023-05-17T12:33:04.227Z,3432.00
2023-05-17T12:34:04.224Z,3332.00
2023-05-17T12:35:04.168Z,3248.00